sensor_id;sensor_type;location;lat;lon;timestamp;pressure;altitude;pressure_sealevel;temperature;humidity
55759;BME280;41678;52.126;20.664;2023-05-11T00:02:12;100853.25;;;9.64;48.09
55759;BME280;41678;52.126;20.664;2023-05-11T00:07:32;100842.72;;;9.56;48.01
55759;BME280;41678;52.126;20.664;2023-05-11T00:12:52;100847.06;;;9.49;48.36
55759;BME280;41678;52.126;20.664;2023-05-11T00:18:11;100845.31;;;9.48;48.07
55759;BME280;41678;52.126;20.664;2023-05-11T00:23:31;100838.31;;;9.40;48.21
55759;BME280;41678;52.126;20.664;2023-05-11T00:28:50;100839.16;;;9.37;48.20
55759;BME280;41678;52.126;20.664;2023-05-11T00:34:10;100845.28;;;9.28;48.63
55759;BME280;41678;52.126;20.664;2023-05-11T00:39:29;100844.38;;;9.21;48.27
55759;BME280;41678;52.126;20.664;2023-05-11T00:44:50;100837.38;;;9.20;48.18
55759;BME280;41678;52.126;20.664;2023-05-11T00:50:09;100843.50;;;9.13;48.51
55759;BME280;41678;52.126;20.664;2023-05-11T00:55:29;100835.59;;;9.10;48.69
55759;BME280;41678;52.126;20.664;2023-05-11T01:00:49;100834.66;;;8.97;48.80
55759;BME280;41678;52.126;20.664;2023-05-11T01:06:16;100830.22;;;8.84;49.15
55759;BME280;41678;52.126;20.664;2023-05-11T01:17:45;100837.19;;;8.71;49.05
55759;BME280;41678;52.126;20.664;2023-05-11T01:35:07;100825.63;;;8.41;49.32
55759;BME280;41678;52.126;20.664;2023-05-11T01:40:30;100827.34;;;8.39;49.25
55759;BME280;41678;52.126;20.664;2023-05-11T01:45:52;100834.31;;;8.32;49.35
55759;BME280;41678;52.126;20.664;2023-05-11T01:51:14;100829.03;;;8.27;48.88
55759;BME280;41678;52.126;20.664;2023-05-11T01:56:40;100827.19;;;8.12;49.73
55759;BME280;41678;52.126;20.664;2023-05-11T02:02:02;100830.66;;;8.13;49.47
55759;BME280;41678;52.126;20.664;2023-05-11T02:07:23;100835.84;;;8.03;49.94
55759;BME280;41678;52.126;20.664;2023-05-11T02:12:44;100819.16;;;7.92;49.76
55759;BME280;41678;52.126;20.664;2023-05-11T02:18:10;100831.38;;;7.90;49.72
55759;BME280;41678;52.126;20.664;2023-05-11T02:23:31;100838.31;;;7.83;49.91
55759;BME280;41678;52.126;20.664;2023-05-11T02:28:52;100832.16;;;7.79;50.00
55759;BME280;41678;52.126;20.664;2023-05-11T02:34:17;100833.03;;;7.78;49.96
55759;BME280;41678;52.126;20.664;2023-05-11T02:39:43;100835.59;;;7.72;49.85
55759;BME280;41678;52.126;20.664;2023-05-11T02:45:07;100836.44;;;7.67;50.04
55759;BME280;41678;52.126;20.664;2023-05-11T02:50:27;100831.09;;;7.57;50.17
55759;BME280;41678;52.126;20.664;2023-05-11T02:55:50;100832.78;;;7.50;50.03
55759;BME280;41678;52.126;20.664;2023-05-11T03:01:11;100829.22;;;7.47;49.78
55759;BME280;41678;52.126;20.664;2023-05-11T03:06:31;100837.03;;;7.42;49.84
55759;BME280;41678;52.126;20.664;2023-05-11T03:11:53;100841.34;;;7.34;50.20
55759;BME280;41678;52.126;20.664;2023-05-11T03:17:14;100834.25;;;7.25;50.08
55759;BME280;41678;52.126;20.664;2023-05-11T03:22:35;100842.94;;;7.22;50.28
55759;BME280;41678;52.126;20.664;2023-05-11T03:27:56;100836.81;;;7.20;50.37
55759;BME280;41678;52.126;20.664;2023-05-11T03:33:17;100846.41;;;7.18;50.46
55759;BME280;41678;52.126;20.664;2023-05-11T03:38:37;100848.97;;;7.14;50.20
55759;BME280;41678;52.126;20.664;2023-05-11T03:43:59;100854.22;;;7.14;50.67
55759;BME280;41678;52.126;20.664;2023-05-11T03:49:21;100856.72;;;7.06;50.90
55759;BME280;41678;52.126;20.664;2023-05-11T03:54:42;100861.19;;;7.15;50.55
55759;BME280;41678;52.126;20.664;2023-05-11T04:00:04;100868.22;;;7.17;50.97
55759;BME280;41678;52.126;20.664;2023-05-11T04:05:34;100866.47;;;7.16;50.96
55759;BME280;41678;52.126;20.664;2023-05-11T04:10:57;100871.78;;;7.24;51.06
55759;BME280;41678;52.126;20.664;2023-05-11T04:16:16;100863.97;;;7.27;51.34
55759;BME280;41678;52.126;20.664;2023-05-11T04:21:35;100865.75;;;7.30;51.70
55759;BME280;41678;52.126;20.664;2023-05-11T04:26:55;100869.25;;;7.32;51.77
55759;BME280;41678;52.126;20.664;2023-05-11T04:32:15;100870.19;;;7.37;51.48
55759;BME280;41678;52.126;20.664;2023-05-11T04:37:35;100870.34;;;7.51;51.99
55759;BME280;41678;52.126;20.664;2023-05-11T04:42:57;100878.22;;;7.56;51.42
55759;BME280;41678;52.126;20.664;2023-05-11T04:48:18;100875.81;;;7.74;52.03
55759;BME280;41678;52.126;20.664;2023-05-11T04:53:37;100872.41;;;7.83;52.17
55759;BME280;41678;52.126;20.664;2023-05-11T04:58:57;100882.03;;;7.87;52.10
55759;BME280;41678;52.126;20.664;2023-05-11T05:04:17;100887.44;;;8.03;51.98
55759;BME280;41678;52.126;20.664;2023-05-11T05:09:37;100889.25;;;8.12;51.78
55759;BME280;41678;52.126;20.664;2023-05-11T05:14:56;100883.16;;;8.17;52.13
55759;BME280;41678;52.126;20.664;2023-05-11T05:20:16;100889.47;;;8.43;52.13
55759;BME280;41678;52.126;20.664;2023-05-11T05:25:36;100886.94;;;8.50;52.07
55759;BME280;41678;52.126;20.664;2023-05-11T05:30:56;100887.91;;;8.68;52.04
55759;BME280;41678;52.126;20.664;2023-05-11T05:36:18;100898.53;;;8.91;52.04
55759;BME280;41678;52.126;20.664;2023-05-11T05:41:38;100901.28;;;9.16;52.04
55759;BME280;41678;52.126;20.664;2023-05-11T05:47:01;100903.13;;;9.39;52.01
55759;BME280;41678;52.126;20.664;2023-05-11T05:52:24;100907.56;;;9.59;51.61
55759;BME280;41678;52.126;20.664;2023-05-11T05:57:44;100909.38;;;9.75;51.79
55759;BME280;41678;52.126;20.664;2023-05-11T06:03:04;100911.16;;;10.04;51.50
55759;BME280;41678;52.126;20.664;2023-05-11T06:08:24;100912.91;;;10.21;51.89
55759;BME280;41678;52.126;20.664;2023-05-11T06:13:44;100919.94;;;10.39;51.49
55759;BME280;41678;52.126;20.664;2023-05-11T06:19:04;100909.41;;;10.66;51.37
55759;BME280;41678;52.126;20.664;2023-05-11T06:24:24;100910.22;;;10.88;51.39
55759;BME280;41678;52.126;20.664;2023-05-11T06:29:44;100909.25;;;11.12;50.89
55759;BME280;41678;52.126;20.664;2023-05-11T06:35:05;100911.78;;;11.40;50.37
55759;BME280;41678;52.126;20.664;2023-05-11T06:40:25;100904.63;;;11.59;50.44
55759;BME280;41678;52.126;20.664;2023-05-11T06:45:45;100905.34;;;11.88;49.73
55759;BME280;41678;52.126;20.664;2023-05-11T06:51:08;100906.94;;;12.11;49.51
55759;BME280;41678;52.126;20.664;2023-05-11T06:56:28;100907.63;;;12.33;49.49
55759;BME280;41678;52.126;20.664;2023-05-11T07:01:50;100904.69;;;12.64;47.98
55759;BME280;41678;52.126;20.664;2023-05-11T07:07:10;100908.03;;;12.83;48.65
55759;BME280;41678;52.126;20.664;2023-05-11T07:12:30;100911.22;;;13.13;47.46
55759;BME280;41678;52.126;20.664;2023-05-11T07:17:50;100908.22;;;13.41;46.74
55759;BME280;41678;52.126;20.664;2023-05-11T07:23:11;100907.03;;;13.64;45.75
55759;BME280;41678;52.126;20.664;2023-05-11T07:28:30;100906.75;;;13.84;46.07
55759;BME280;41678;52.126;20.664;2023-05-11T07:33:50;100900.28;;;14.04;45.49
55759;BME280;41678;52.126;20.664;2023-05-11T07:39:10;100908.84;;;14.22;43.70
55759;BME280;41678;52.126;20.664;2023-05-11T07:44:29;100909.41;;;14.41;44.43
55759;BME280;41678;52.126;20.664;2023-05-11T07:49:49;100908.06;;;14.65;43.51
55759;BME280;41678;52.126;20.664;2023-05-11T07:55:09;100898.06;;;14.81;41.98
55759;BME280;41678;52.126;20.664;2023-05-11T08:00:29;100906.56;;;14.99;41.04
55759;BME280;41678;52.126;20.664;2023-05-11T08:05:49;100905.41;;;15.14;42.69
55759;BME280;41678;52.126;20.664;2023-05-11T08:11:09;100906.78;;;15.32;43.17
55759;BME280;41678;52.126;20.664;2023-05-11T08:16:28;100899.25;;;15.53;42.68
55759;BME280;41678;52.126;20.664;2023-05-11T08:21:48;100906.91;;;15.67;41.37
55759;BME280;41678;52.126;20.664;2023-05-11T08:27:08;100907.69;;;15.72;40.44
55759;BME280;41678;52.126;20.664;2023-05-11T08:32:27;100895.63;;;15.96;41.93
55759;BME280;41678;52.126;20.664;2023-05-11T08:37:47;100897.91;;;16.12;40.96
55759;BME280;41678;52.126;20.664;2023-05-11T08:43:06;100884.44;;;16.20;40.73
55759;BME280;41678;52.126;20.664;2023-05-11T08:48:28;100891.41;;;16.24;40.42
55759;BME280;41678;52.126;20.664;2023-05-11T08:53:47;100895.50;;;16.37;40.24
55759;BME280;41678;52.126;20.664;2023-05-11T08:59:07;100885.41;;;16.50;40.58
55759;BME280;41678;52.126;20.664;2023-05-11T09:04:27;100900.38;;;16.54;39.24
55759;BME280;41678;52.126;20.664;2023-05-11T09:09:47;100887.81;;;16.60;39.39
55759;BME280;41678;52.126;20.664;2023-05-11T09:15:08;100889.44;;;16.65;38.94
55759;BME280;41678;52.126;20.664;2023-05-11T09:20:29;100893.63;;;16.74;38.24
55759;BME280;41678;52.126;20.664;2023-05-11T09:25:53;100886.31;;;16.82;37.74
55759;BME280;41678;52.126;20.664;2023-05-11T09:36:53;100883.44;;;16.90;38.09
55759;BME280;41678;52.126;20.664;2023-05-11T09:42:17;100876.25;;;16.94;37.60
55759;BME280;41678;52.126;20.664;2023-05-11T09:47:38;100884.03;;;17.02;38.45
55759;BME280;41678;52.126;20.664;2023-05-11T09:53:01;100879.41;;;17.08;36.91
55759;BME280;41678;52.126;20.664;2023-05-11T09:58:21;100869.44;;;17.17;38.66
55759;BME280;41678;52.126;20.664;2023-05-11T10:03:51;100856.75;;;17.25;38.41
55759;BME280;41678;52.126;20.664;2023-05-11T10:09:14;100853.75;;;17.36;38.86
55759;BME280;41678;52.126;20.664;2023-05-11T10:14:34;100856.34;;;17.39;37.58
55759;BME280;41678;52.126;20.664;2023-05-11T10:19:54;100850.81;;;17.45;38.23
55759;BME280;41678;52.126;20.664;2023-05-11T10:25:16;100843.50;;;17.52;37.93
55759;BME280;41678;52.126;20.664;2023-05-11T10:30:36;100859.09;;;17.64;38.18
55759;BME280;41678;52.126;20.664;2023-05-11T10:35:56;100841.41;;;17.62;37.46
55759;BME280;41678;52.126;20.664;2023-05-11T11:04:01;100823.00;;;17.82;38.21
55759;BME280;41678;52.126;20.664;2023-05-11T11:09:23;100828.16;;;17.87;37.90
55759;BME280;41678;52.126;20.664;2023-05-11T11:14:57;100826.22;;;17.92;37.90
55759;BME280;41678;52.126;20.664;2023-05-11T11:20:44;100828.78;;;17.95;38.92
55759;BME280;41678;52.126;20.664;2023-05-11T11:26:05;100814.53;;;17.96;37.94
55759;BME280;41678;52.126;20.664;2023-05-11T11:31:26;100814.84;;;17.87;37.09
55759;BME280;41678;52.126;20.664;2023-05-11T11:48:20;100815.66;;;17.89;37.77
55759;BME280;41678;52.126;20.664;2023-05-11T11:59:00;100806.78;;;17.90;38.40
55759;BME280;41678;52.126;20.664;2023-05-11T12:04:35;100812.09;;;17.90;38.51
55759;BME280;41678;52.126;20.664;2023-05-11T12:09:57;100811.00;;;17.96;38.17
55759;BME280;41678;52.126;20.664;2023-05-11T12:15:28;100805.78;;;17.93;38.81
55759;BME280;41678;52.126;20.664;2023-05-11T12:20:48;100809.19;;;17.98;38.56
55759;BME280;41678;52.126;20.664;2023-05-11T12:26:08;100814.00;;;17.87;37.08
55759;BME280;41678;52.126;20.664;2023-05-11T12:31:34;100797.34;;;17.80;36.65
55759;BME280;41678;52.126;20.664;2023-05-11T12:36:54;100792.72;;;17.85;38.13
55759;BME280;41678;52.126;20.664;2023-05-11T12:42:17;100801.53;;;17.87;38.77
55759;BME280;41678;52.126;20.664;2023-05-11T12:47:37;100792.06;;;17.78;37.71
55759;BME280;41678;52.126;20.664;2023-05-11T12:53:13;100790.06;;;17.85;37.69
55759;BME280;41678;52.126;20.664;2023-05-11T12:58:38;100777.06;;;17.76;38.25
55759;BME280;41678;52.126;20.664;2023-05-11T13:03:58;100768.09;;;17.78;38.83
55759;BME280;41678;52.126;20.664;2023-05-11T13:09:23;100769.13;;;17.74;38.26
55759;BME280;41678;52.126;20.664;2023-05-11T13:14:48;100771.63;;;17.79;38.41
55759;BME280;41678;52.126;20.664;2023-05-11T13:20:18;100770.84;;;17.75;38.13
55759;BME280;41678;52.126;20.664;2023-05-11T13:31:04;100752.38;;;17.70;38.20
55759;BME280;41678;52.126;20.664;2023-05-11T13:36:24;100751.44;;;17.72;38.67
55759;BME280;41678;52.126;20.664;2023-05-11T13:41:44;100759.25;;;17.78;39.24
55759;BME280;41678;52.126;20.664;2023-05-11T13:47:04;100754.03;;;17.75;37.60
55759;BME280;41678;52.126;20.664;2023-05-11T13:52:24;100749.66;;;17.72;37.04
55759;BME280;41678;52.126;20.664;2023-05-11T13:57:44;100757.59;;;17.74;38.35
55759;BME280;41678;52.126;20.664;2023-05-11T14:03:04;100749.66;;;17.72;37.96
55759;BME280;41678;52.126;20.664;2023-05-11T14:08:24;100745.25;;;17.71;38.94
55759;BME280;41678;52.126;20.664;2023-05-11T14:13:43;100745.19;;;17.73;39.11
55759;BME280;41678;52.126;20.664;2023-05-11T14:19:03;100730.13;;;17.72;38.07
55759;BME280;41678;52.126;20.664;2023-05-11T14:24:22;100734.66;;;17.69;38.59
55759;BME280;41678;52.126;20.664;2023-05-11T14:29:42;100739.22;;;17.66;38.03
55759;BME280;41678;52.126;20.664;2023-05-11T14:35:03;100740.97;;;17.67;38.68
55759;BME280;41678;52.126;20.664;2023-05-11T14:40:23;100746.22;;;17.68;38.75
55759;BME280;41678;52.126;20.664;2023-05-11T14:45:42;100733.00;;;17.67;38.24
55759;BME280;41678;52.126;20.664;2023-05-11T14:51:02;100725.03;;;17.65;38.89
55759;BME280;41678;52.126;20.664;2023-05-11T14:56:23;100731.31;;;17.63;38.19
55759;BME280;41678;52.126;20.664;2023-05-11T15:01:43;100735.72;;;17.64;38.11
55759;BME280;41678;52.126;20.664;2023-05-11T15:07:02;100733.03;;;17.65;38.80
55759;BME280;41678;52.126;20.664;2023-05-11T15:12:22;100723.19;;;17.67;38.83
55759;BME280;41678;52.126;20.664;2023-05-11T15:17:41;100734.97;;;17.60;38.63
55759;BME280;41678;52.126;20.664;2023-05-11T15:23:01;100744.78;;;17.58;38.79
55759;BME280;41678;52.126;20.664;2023-05-11T15:28:22;100733.25;;;17.59;38.70
55759;BME280;41678;52.126;20.664;2023-05-11T15:33:41;100731.44;;;17.60;39.00
55759;BME280;41678;52.126;20.664;2023-05-11T15:39:01;100738.66;;;17.56;38.26
55759;BME280;41678;52.126;20.664;2023-05-11T15:44:21;100736.13;;;17.51;38.69
55759;BME280;41678;52.126;20.664;2023-05-11T15:49:40;100742.34;;;17.52;39.04
55759;BME280;41678;52.126;20.664;2023-05-11T15:55:00;100741.53;;;17.50;38.68
55759;BME280;41678;52.126;20.664;2023-05-11T16:00:20;100745.94;;;17.51;38.74
55759;BME280;41678;52.126;20.664;2023-05-11T16:05:40;100743.41;;;17.46;39.16
55759;BME280;41678;52.126;20.664;2023-05-11T16:10:59;100743.41;;;17.46;38.57
55759;BME280;41678;52.126;20.664;2023-05-11T16:16:19;100744.38;;;17.44;39.15
55759;BME280;41678;52.126;20.664;2023-05-11T16:21:39;100742.75;;;17.39;37.90
55759;BME280;41678;52.126;20.664;2023-05-11T16:26:59;100743.81;;;17.34;38.97
55759;BME280;41678;52.126;20.664;2023-05-11T16:32:18;100738.34;;;17.38;39.30
55759;BME280;41678;52.126;20.664;2023-05-11T16:37:38;100748.84;;;17.43;39.42
55759;BME280;41678;52.126;20.664;2023-05-11T16:42:58;100737.16;;;17.47;38.89
55759;BME280;41678;52.126;20.664;2023-05-11T16:48:18;100745.16;;;17.47;39.04
55759;BME280;41678;52.126;20.664;2023-05-11T16:53:37;100745.94;;;17.51;39.36
55759;BME280;41678;52.126;20.664;2023-05-11T16:58:57;100748.69;;;17.48;39.18
55759;BME280;41678;52.126;20.664;2023-05-11T17:04:16;100747.97;;;17.42;39.35
55759;BME280;41678;52.126;20.664;2023-05-11T17:09:36;100752.47;;;17.40;39.23
55759;BME280;41678;52.126;20.664;2023-05-11T17:14:57;100756.19;;;17.35;39.18
55759;BME280;41678;52.126;20.664;2023-05-11T17:20:17;100757.03;;;17.37;39.20
55759;BME280;41678;52.126;20.664;2023-05-11T17:25:38;100765.06;;;17.35;39.38
55759;BME280;41678;52.126;20.664;2023-05-11T17:31:12;100761.09;;;17.20;39.33
55759;BME280;41678;52.126;20.664;2023-05-11T17:36:33;100771.13;;;17.12;39.34
55759;BME280;41678;52.126;20.664;2023-05-11T17:41:54;100772.38;;;17.00;39.19
55759;BME280;41678;52.126;20.664;2023-05-11T17:47:14;100771.72;;;16.90;39.70
55759;BME280;41678;52.126;20.664;2023-05-11T17:52:34;100772.28;;;16.71;39.40
55759;BME280;41678;52.126;20.664;2023-05-11T17:57:53;100777.88;;;16.62;40.39
55759;BME280;41678;52.126;20.664;2023-05-11T18:03:12;100776.50;;;16.49;40.84
55759;BME280;41678;52.126;20.664;2023-05-11T18:08:32;100784.78;;;16.38;40.90
55759;BME280;41678;52.126;20.664;2023-05-11T18:13:52;100788.75;;;16.21;41.09
55759;BME280;41678;52.126;20.664;2023-05-11T18:19:12;100794.41;;;16.09;41.76
55759;BME280;41678;52.126;20.664;2023-05-11T18:24:31;100791.28;;;15.91;41.76
55759;BME280;41678;52.126;20.664;2023-05-11T18:29:51;100804.00;;;15.77;42.16
55759;BME280;41678;52.126;20.664;2023-05-11T18:35:12;100808.75;;;15.64;42.52
55759;BME280;41678;52.126;20.664;2023-05-11T18:40:31;100810.88;;;15.49;42.80
55759;BME280;41678;52.126;20.664;2023-05-11T18:45:51;100819.25;;;15.32;43.18
55759;BME280;41678;52.126;20.664;2023-05-11T18:51:11;100815.16;;;15.17;43.12
55759;BME280;41678;52.126;20.664;2023-05-11T18:56:30;100822.53;;;15.02;43.48
55759;BME280;41678;52.126;20.664;2023-05-11T19:01:50;100814.09;;;14.83;43.61
55759;BME280;41678;52.126;20.664;2023-05-11T19:07:09;100827.53;;;14.74;43.66
55759;BME280;41678;52.126;20.664;2023-05-11T19:12:29;100832.28;;;14.55;43.71
55759;BME280;41678;52.126;20.664;2023-05-11T19:17:49;100833.41;;;14.43;44.13
55759;BME280;41678;52.126;20.664;2023-05-11T19:23:08;100846.97;;;14.26;44.06
55759;BME280;41678;52.126;20.664;2023-05-11T19:28:28;100847.16;;;14.15;44.36
55759;BME280;41678;52.126;20.664;2023-05-11T19:33:47;100849.09;;;14.05;44.45
55759;BME280;41678;52.126;20.664;2023-05-11T19:39:07;100845.75;;;13.92;44.46
55759;BME280;41678;52.126;20.664;2023-05-11T19:44:27;100851.22;;;13.83;44.47
55759;BME280;41678;52.126;20.664;2023-05-11T19:49:51;100852.34;;;13.66;44.64
55759;BME280;41678;52.126;20.664;2023-05-11T19:55:10;100847.19;;;13.57;44.72
55759;BME280;41678;52.126;20.664;2023-05-11T20:00:30;100852.66;;;13.46;44.96
55759;BME280;41678;52.126;20.664;2023-05-11T20:05:49;100863.31;;;13.38;44.92
55759;BME280;41678;52.126;20.664;2023-05-11T20:11:09;100853.81;;;13.23;45.17
55759;BME280;41678;52.126;20.664;2023-05-11T20:16:29;100861.84;;;13.15;45.21
55759;BME280;41678;52.126;20.664;2023-05-11T20:21:49;100869.91;;;13.06;45.48
55759;BME280;41678;52.126;20.664;2023-05-11T20:27:13;100864.75;;;12.92;45.76
55759;BME280;41678;52.126;20.664;2023-05-11T20:32:32;100867.50;;;12.84;45.30
55759;BME280;41678;52.126;20.664;2023-05-11T20:37:55;100871.13;;;12.77;45.79
55759;BME280;41678;52.126;20.664;2023-05-11T20:43:15;100865.97;;;12.65;45.63
55759;BME280;41678;52.126;20.664;2023-05-11T20:48:35;100867.78;;;12.58;45.77
55759;BME280;41678;52.126;20.664;2023-05-11T20:53:55;100867.03;;;12.48;45.97
55759;BME280;41678;52.126;20.664;2023-05-11T20:59:15;100875.88;;;12.41;46.00
55759;BME280;41678;52.126;20.664;2023-05-11T21:04:35;100876.00;;;12.31;46.24
55759;BME280;41678;52.126;20.664;2023-05-11T21:09:56;100876.94;;;12.23;46.31
55759;BME280;41678;52.126;20.664;2023-05-11T21:15:15;100891.09;;;12.14;46.49
55759;BME280;41678;52.126;20.664;2023-05-11T21:20:35;100891.16;;;12.06;46.43
55759;BME280;41678;52.126;20.664;2023-05-11T21:25:56;100897.34;;;12.02;46.59
55759;BME280;41678;52.126;20.664;2023-05-11T21:31:16;100896.47;;;11.95;46.68
55759;BME280;41678;52.126;20.664;2023-05-11T21:36:36;100900.91;;;11.90;47.07
55759;BME280;41678;52.126;20.664;2023-05-11T21:41:57;100900.03;;;11.89;46.69
55759;BME280;41678;52.126;20.664;2023-05-11T21:47:16;100905.34;;;11.88;46.82
55759;BME280;41678;52.126;20.664;2023-05-11T21:52:36;100900.09;;;11.82;47.08
55759;BME280;41678;52.126;20.664;2023-05-11T21:57:56;100901.03;;;11.73;47.53
55759;BME280;41678;52.126;20.664;2023-05-11T22:03:16;100910.72;;;11.72;47.13
55759;BME280;41678;52.126;20.664;2023-05-11T22:08:36;100912.47;;;11.67;47.49
55759;BME280;41678;52.126;20.664;2023-05-11T22:13:56;100907.22;;;11.70;47.11
55759;BME280;41678;52.126;20.664;2023-05-11T22:19:15;100915.19;;;11.62;47.19
55759;BME280;41678;52.126;20.664;2023-05-11T22:24:34;100920.50;;;11.53;47.45
55759;BME280;41678;52.126;20.664;2023-05-11T22:29:54;100928.41;;;11.52;47.97
55759;BME280;41678;52.126;20.664;2023-05-11T22:35:13;100920.56;;;11.42;47.50
55759;BME280;41678;52.126;20.664;2023-05-11T22:40:33;100931.06;;;11.45;47.45
55759;BME280;41678;52.126;20.664;2023-05-11T22:45:52;100924.06;;;11.40;47.48
55759;BME280;41678;52.126;20.664;2023-05-11T22:51:12;100928.47;;;11.39;47.78
55759;BME280;41678;52.126;20.664;2023-05-11T22:56:31;100925.88;;;11.34;47.67
55759;BME280;41678;52.126;20.664;2023-05-11T23:01:50;100931.16;;;11.30;47.73
55759;BME280;41678;52.126;20.664;2023-05-11T23:07:10;100927.66;;;11.23;48.10
55759;BME280;41678;52.126;20.664;2023-05-11T23:12:31;100924.19;;;11.15;48.19
55759;BME280;41678;52.126;20.664;2023-05-11T23:17:50;100931.19;;;11.13;47.84
55759;BME280;41678;52.126;20.664;2023-05-11T23:23:09;100920.69;;;11.05;47.99
55759;BME280;41678;52.126;20.664;2023-05-11T23:28:29;100931.28;;;11.00;48.00
55759;BME280;41678;52.126;20.664;2023-05-11T23:33:48;100918.09;;;10.94;47.93
55759;BME280;41678;52.126;20.664;2023-05-11T23:39:08;100925.13;;;10.87;48.15
55759;BME280;41678;52.126;20.664;2023-05-11T23:44:27;100926.91;;;10.77;48.02
55759;BME280;41678;52.126;20.664;2023-05-11T23:49:47;100932.22;;;10.71;48.30
55759;BME280;41678;52.126;20.664;2023-05-11T23:55:07;100929.56;;;10.65;48.34
